createdAt,value
2018-01-21T00:01:43.205Z,2.30
2018-01-21T00:04:11.589Z,2.30
2018-01-21T00:06:39.870Z,2.20
2018-01-21T00:09:09.621Z,2.10
2018-01-21T00:11:41.169Z,2.10
2018-01-21T00:14:13.089Z,2.10
2018-01-21T00:16:41.472Z,2.10
2018-01-21T00:19:09.809Z,2.20
2018-01-21T00:21:38.709Z,2.20
2018-01-21T00:24:07.019Z,2.30
2018-01-21T00:26:37.029Z,2.30
2018-01-21T00:29:05.627Z,2.30
2018-01-21T00:31:34.107Z,2.30
2018-01-21T00:34:02.878Z,2.30
2018-01-21T00:36:31.460Z,2.20
2018-01-21T00:39:02.754Z,2.20
2018-01-21T00:41:47.877Z,2.10
2018-01-21T00:44:16.210Z,2.20
2018-01-21T00:46:47.355Z,2.20
2018-01-21T00:49:15.761Z,2.20
2018-01-21T00:51:44.971Z,2.20
2018-01-21T00:54:13.630Z,2.20
2018-01-21T00:56:42.834Z,2.30
2018-01-21T00:59:13.054Z,2.30
2018-01-21T01:01:42.533Z,2.30
2018-01-21T01:04:13.337Z,2.30
2018-01-21T01:06:41.637Z,2.30
2018-01-21T01:09:09.954Z,2.30
2018-01-21T01:11:39.477Z,2.30
2018-01-21T01:14:09.631Z,2.30
2018-01-21T01:16:42.162Z,2.20
2018-01-21T01:19:11.243Z,2.20
2018-01-21T01:21:39.528Z,2.10
2018-01-21T01:24:08.091Z,2.10
2018-01-21T01:26:44.581Z,2.00
2018-01-21T01:29:13.102Z,1.80
2018-01-21T01:31:43.711Z,1.70
2018-01-21T01:34:12.045Z,1.60
2018-01-21T01:36:40.622Z,1.50
2018-01-21T01:39:10.241Z,1.50
2018-01-21T01:41:53.077Z,1.50
2018-01-21T01:44:21.374Z,1.50
2018-01-21T01:46:49.700Z,1.40
2018-01-21T01:49:18.639Z,1.30
2018-01-21T01:51:46.914Z,1.20
2018-01-21T01:54:16.235Z,1.00
2018-01-21T01:56:44.530Z,1.00
2018-01-21T01:59:37.855Z,1.10
2018-01-21T02:02:06.184Z,1.10
2018-01-21T02:04:34.495Z,1.20
2018-01-21T02:07:03.068Z,1.20
2018-01-21T02:09:31.395Z,1.20
2018-01-21T02:12:02.536Z,1.20
2018-01-21T02:14:30.921Z,1.10
2018-01-21T02:16:59.602Z,1.20
2018-01-21T02:19:28.565Z,1.20
2018-01-21T02:21:57.577Z,1.20
2018-01-21T02:24:33.262Z,1.40
2018-01-21T02:27:02.661Z,1.40
2018-01-21T02:29:53.704Z,1.50
2018-01-21T02:32:21.990Z,1.50
2018-01-21T02:34:51.599Z,1.50
2018-01-21T02:37:20.502Z,1.50
2018-01-21T02:39:49.874Z,1.50
2018-01-21T02:42:19.059Z,1.50
2018-01-21T02:54:49.803Z,1.60
2018-01-21T02:57:19.804Z,1.60
2018-01-21T03:00:09.669Z,1.50
2018-01-21T03:02:39.603Z,1.40
2018-01-21T03:05:07.893Z,1.30
2018-01-21T03:07:36.866Z,1.30
2018-01-21T03:10:05.166Z,1.40
2018-01-21T03:12:39.260Z,1.30
2018-01-21T03:15:08.905Z,1.30
2018-01-21T03:17:40.149Z,1.20
2018-01-21T03:20:11.410Z,1.20
2018-01-21T03:22:39.733Z,1.20
2018-01-21T03:25:08.117Z,1.20
2018-01-21T03:27:36.438Z,1.20
2018-01-21T03:30:12.271Z,1.20
2018-01-21T03:32:40.962Z,1.10
2018-01-21T03:35:12.421Z,1.10
2018-01-21T03:37:40.838Z,1.10
2018-01-21T03:40:09.638Z,1.00
2018-01-21T03:42:39.097Z,0.90
2018-01-21T03:45:50.255Z,0.90
2018-01-21T03:48:19.023Z,0.80
2018-01-21T03:50:48.015Z,0.90
2018-01-21T03:53:20.105Z,1.00
2018-01-21T03:55:49.417Z,1.00
2018-01-21T03:58:18.175Z,0.90
2018-01-21T04:01:29.109Z,0.80
2018-01-21T04:03:57.849Z,0.80
2018-01-21T04:06:29.372Z,0.60
2018-01-21T04:08:57.673Z,0.60
2018-01-21T04:11:26.006Z,0.50
2018-01-21T04:13:54.566Z,0.50
2018-01-21T04:16:22.892Z,0.50
2018-01-21T04:18:51.587Z,0.50
2018-01-21T04:21:19.900Z,0.50
2018-01-21T04:23:48.182Z,0.60
2018-01-21T04:26:17.324Z,0.60
2018-01-21T04:29:00.116Z,0.70
2018-01-21T04:31:32.636Z,0.70
2018-01-21T04:34:04.201Z,0.80
2018-01-21T04:36:32.489Z,0.80
2018-01-21T04:39:01.056Z,0.90
2018-01-21T04:41:29.667Z,0.90
2018-01-21T04:43:57.989Z,0.90
2018-01-21T04:46:28.220Z,0.90
2018-01-21T04:48:57.111Z,0.90
2018-01-21T04:51:26.473Z,1.00
2018-01-21T04:53:54.777Z,1.00
2018-01-21T04:56:23.091Z,1.00
2018-01-21T04:58:51.696Z,1.10
2018-01-21T05:01:59.945Z,1.10
2018-01-21T05:04:31.523Z,1.10
2018-01-21T05:07:01.335Z,1.10
2018-01-21T05:09:32.403Z,1.10
2018-01-21T05:12:01.590Z,1.10
2018-01-21T05:14:29.918Z,1.10
2018-01-21T05:16:58.195Z,1.10
2018-01-21T05:19:29.975Z,1.30
2018-01-21T05:21:58.541Z,1.30
2018-01-21T05:24:27.529Z,1.30
2018-01-21T05:26:56.439Z,1.20
2018-01-21T05:29:53.344Z,1.30
2018-01-21T05:32:22.288Z,1.30
2018-01-21T05:34:51.117Z,1.30
2018-01-21T05:37:21.254Z,1.30
2018-01-21T05:39:50.451Z,1.30
2018-01-21T05:42:18.977Z,1.30
2018-01-21T05:48:51.827Z,1.30
2018-01-21T05:51:20.651Z,1.30
2018-01-21T05:53:49.866Z,1.30
2018-01-21T05:56:18.196Z,1.30
2018-01-21T05:58:46.662Z,1.30
2018-01-21T06:01:16.631Z,1.40
2018-01-21T06:03:45.104Z,1.30
2018-01-21T06:06:13.460Z,1.30
2018-01-21T06:08:42.392Z,1.30
2018-01-21T06:11:12.696Z,1.30
2018-01-21T06:13:42.599Z,1.30
2018-01-21T06:16:12.416Z,1.30
2018-01-21T06:18:40.852Z,1.30
2018-01-21T06:21:09.901Z,1.30
2018-01-21T06:23:38.192Z,1.30
2018-01-21T06:26:07.060Z,1.30
2018-01-21T06:28:35.779Z,1.30
2018-01-21T06:31:04.055Z,1.40
2018-01-21T06:33:32.355Z,1.40
2018-01-21T06:36:02.240Z,1.40
2018-01-21T06:38:31.085Z,1.40
2018-01-21T06:40:59.357Z,1.40
2018-01-21T06:43:29.133Z,1.50
2018-01-21T06:45:57.414Z,1.50
2018-01-21T06:48:26.496Z,1.50
2018-01-21T06:50:56.292Z,1.50
2018-01-21T06:53:26.496Z,1.50
2018-01-21T06:55:54.820Z,1.50
2018-01-21T06:58:25.204Z,1.50
2018-01-21T07:00:53.555Z,1.50
2018-01-21T07:03:22.854Z,1.50
2018-01-21T07:05:53.345Z,1.50
2018-01-21T07:08:25.037Z,1.50
2018-01-21T07:10:55.703Z,1.50
2018-01-21T07:13:24.840Z,1.50
2018-01-21T07:15:53.784Z,1.60
2018-01-21T07:18:23.482Z,1.50
2018-01-21T07:20:53.668Z,1.60
2018-01-21T07:23:23.399Z,1.60
2018-01-21T07:25:52.833Z,1.60
2018-01-21T07:28:21.914Z,1.60
2018-01-21T07:31:05.809Z,1.60
2018-01-21T07:33:34.491Z,1.60
2018-01-21T07:36:04.263Z,1.60
2018-01-21T07:38:32.641Z,1.60
2018-01-21T07:41:00.919Z,1.70
2018-01-21T07:43:29.835Z,1.70
2018-01-21T07:46:11.636Z,1.60
2018-01-21T07:48:42.151Z,1.70
2018-01-21T07:51:11.175Z,1.70
2018-01-21T07:53:39.521Z,1.80
2018-01-21T07:56:08.967Z,1.90
2018-01-21T07:58:37.275Z,1.90
2018-01-21T08:01:08.599Z,1.90
2018-01-21T08:03:36.907Z,1.90
2018-01-21T08:06:05.202Z,2.00
2018-01-21T08:08:34.286Z,1.90
2018-01-21T08:11:03.585Z,1.90
2018-01-21T08:13:34.120Z,2.00
2018-01-21T08:16:05.105Z,1.90
2018-01-21T08:18:33.441Z,1.90
2018-01-21T08:21:02.619Z,1.90
2018-01-21T08:23:30.945Z,1.90
2018-01-21T08:25:59.662Z,1.90
2018-01-21T08:28:30.267Z,1.80
2018-01-21T08:30:58.570Z,1.80
2018-01-21T08:33:28.117Z,1.80
2018-01-21T08:36:02.251Z,1.80
2018-01-21T08:38:36.982Z,1.80
2018-01-21T08:41:10.882Z,1.80
2018-01-21T08:43:39.173Z,1.80
2018-01-21T08:46:07.810Z,1.80
2018-01-21T08:48:41.349Z,1.80
2018-01-21T08:51:09.995Z,1.80
2018-01-21T08:53:38.885Z,1.80
2018-01-21T08:56:07.871Z,1.80
2018-01-21T08:58:36.489Z,1.80
2018-01-21T09:01:05.806Z,1.80
2018-01-21T09:03:36.444Z,1.80
2018-01-21T09:06:05.423Z,1.80
2018-01-21T09:08:35.183Z,1.70
2018-01-21T09:11:03.516Z,1.70
2018-01-21T09:13:31.826Z,1.70
2018-01-21T09:16:02.891Z,1.60
2018-01-21T09:18:33.516Z,1.70
2018-01-21T09:21:03.754Z,1.60
2018-01-21T09:23:32.233Z,1.70
2018-01-21T09:26:00.585Z,1.70
2018-01-21T09:28:28.917Z,1.60
2018-01-21T09:31:00.393Z,1.60
2018-01-21T09:33:52.325Z,1.60
2018-01-21T09:36:20.616Z,1.60
2018-01-21T09:38:50.479Z,1.60
2018-01-21T09:41:21.563Z,1.60
2018-01-21T09:43:49.836Z,1.60
2018-01-21T09:46:19.724Z,1.60
2018-01-21T09:48:48.262Z,1.60
2018-01-21T09:51:16.572Z,1.60
2018-01-21T09:53:45.711Z,1.60
2018-01-21T09:56:14.528Z,1.70
2018-01-21T09:58:42.892Z,1.80
2018-01-21T10:01:11.308Z,1.80
2018-01-21T10:04:09.801Z,1.90
2018-01-21T10:09:26.604Z,1.90
2018-01-21T10:11:54.949Z,1.90
2018-01-21T10:14:26.246Z,1.90
2018-01-21T10:16:56.572Z,1.90
2018-01-21T10:19:46.147Z,1.90
2018-01-21T10:22:14.524Z,2.00
2018-01-21T10:24:43.164Z,2.00
2018-01-21T10:27:12.737Z,2.00
2018-01-21T10:29:43.949Z,1.90
2018-01-21T10:32:12.515Z,1.90
2018-01-21T10:38:26.335Z,1.70
2018-01-21T10:40:54.889Z,1.70
2018-01-21T10:43:23.156Z,1.70
2018-01-21T10:45:52.815Z,1.70
2018-01-21T10:48:22.553Z,1.70
2018-01-21T10:50:51.229Z,1.80
2018-01-21T10:53:19.586Z,1.80
2018-01-21T10:55:50.425Z,1.90
2018-01-21T10:58:19.686Z,2.00
2018-01-21T11:01:01.884Z,2.00
2018-01-21T11:07:16.570Z,2.00
2018-01-21T11:09:45.962Z,1.90
2018-01-21T11:12:15.833Z,1.80
2018-01-21T11:14:46.231Z,1.70
2018-01-21T11:17:15.398Z,1.70
2018-01-21T11:20:06.374Z,1.70
2018-01-21T11:22:40.329Z,1.70
2018-01-21T11:25:09.244Z,1.70
2018-01-21T11:27:39.923Z,1.80
2018-01-21T11:30:08.227Z,1.80
2018-01-21T11:32:37.139Z,1.80
2018-01-21T11:35:07.184Z,1.80
2018-01-21T11:37:39.068Z,1.90
2018-01-21T11:40:09.076Z,2.10
2018-01-21T11:42:38.266Z,2.10
2018-01-21T11:45:06.886Z,2.20
2018-01-21T11:47:36.055Z,2.20
2018-01-21T11:50:08.531Z,2.30
2018-01-21T11:52:37.661Z,2.40
2018-01-21T11:55:05.987Z,2.40
2018-01-21T11:57:36.640Z,2.50
2018-01-21T12:00:06.038Z,2.50
2018-01-21T12:02:34.323Z,2.50
2018-01-21T12:05:03.789Z,2.50
2018-01-21T12:07:32.042Z,2.50
2018-01-21T12:10:02.608Z,2.50
2018-01-21T12:12:32.313Z,2.50
2018-01-21T12:15:01.632Z,2.50
2018-01-21T12:17:30.704Z,2.50
2018-01-21T12:19:59.325Z,2.50
2018-01-21T12:22:27.769Z,2.50
2018-01-21T12:24:57.828Z,2.50
2018-01-21T12:27:28.988Z,2.50
2018-01-21T12:29:58.045Z,2.50
2018-01-21T12:32:26.490Z,2.60
2018-01-21T12:34:54.816Z,2.60
2018-01-21T12:37:23.283Z,2.60
2018-01-21T12:39:52.893Z,2.60
2018-01-21T12:42:21.187Z,2.70
2018-01-21T12:44:49.694Z,2.70
2018-01-21T12:47:18.003Z,2.70
2018-01-21T12:49:47.450Z,2.70
2018-01-21T12:52:20.029Z,2.80
2018-01-21T12:54:49.235Z,2.80
2018-01-21T12:57:17.610Z,2.80
2018-01-21T12:59:45.904Z,2.80
2018-01-21T13:02:15.543Z,2.80
2018-01-21T13:05:12.355Z,2.80
2018-01-21T13:07:43.255Z,2.90
2018-01-21T13:10:13.808Z,2.90
2018-01-21T13:12:43.190Z,3.00
2018-01-21T13:15:11.504Z,3.00
2018-01-21T13:17:42.548Z,3.00
2018-01-21T13:20:11.747Z,3.00
2018-01-21T13:22:41.267Z,3.10
2018-01-21T13:25:09.600Z,3.10
2018-01-21T13:27:39.085Z,3.10
2018-01-21T13:30:07.389Z,3.10
2018-01-21T13:32:41.415Z,3.20
2018-01-21T13:35:16.376Z,3.30
2018-01-21T13:37:49.193Z,3.30
2018-01-21T13:40:18.941Z,3.30
2018-01-21T13:42:47.242Z,3.40
2018-01-21T13:45:15.533Z,3.40
2018-01-21T13:47:44.608Z,3.50
2018-01-21T13:50:14.375Z,3.60
2018-01-21T13:52:45.444Z,3.70
2018-01-21T13:55:17.743Z,3.70
2018-01-21T13:57:48.192Z,3.90
2018-01-21T14:00:17.252Z,3.90
2018-01-21T14:02:46.068Z,3.90
2018-01-21T14:05:15.274Z,4.00
2018-01-21T14:07:44.484Z,4.20
2018-01-21T14:10:13.579Z,4.20
2018-01-21T14:12:42.210Z,4.20
2018-01-21T14:15:11.642Z,4.20
2018-01-21T14:17:40.303Z,4.30
2018-01-21T14:20:08.676Z,4.30
2018-01-21T14:22:37.959Z,4.40
2018-01-21T14:25:08.552Z,4.40
2018-01-21T14:27:38.781Z,4.40
2018-01-21T14:30:07.953Z,4.50
2018-01-21T14:32:36.986Z,4.50
2018-01-21T14:35:05.771Z,4.60
2018-01-21T14:37:56.969Z,4.70
2018-01-21T14:40:25.975Z,4.70
2018-01-21T14:42:54.292Z,4.70
2018-01-21T14:45:27.277Z,4.80
2018-01-21T14:47:58.010Z,4.90
2018-01-21T14:50:29.399Z,5.00
2018-01-21T14:52:59.089Z,5.00
2018-01-21T14:55:27.952Z,5.00
2018-01-21T14:57:56.305Z,5.10
2018-01-21T15:00:25.389Z,5.10
2018-01-21T15:02:56.753Z,5.10
2018-01-21T15:05:30.020Z,5.20
2018-01-21T15:07:59.699Z,5.10
2018-01-21T15:10:29.661Z,5.20
2018-01-21T15:12:59.528Z,5.20
2018-01-21T15:15:31.578Z,5.30
2018-01-21T15:17:59.994Z,5.30
2018-01-21T15:20:30.672Z,5.30
2018-01-21T15:22:59.447Z,5.30
2018-01-21T15:25:28.513Z,5.40
2018-01-21T15:27:58.701Z,5.40
2018-01-21T15:30:27.611Z,5.40
2018-01-21T15:32:58.654Z,5.50
2018-01-21T15:35:29.538Z,5.50
2018-01-21T15:37:57.838Z,5.50
2018-01-21T15:40:26.154Z,5.50
2018-01-21T15:42:54.984Z,5.50
2018-01-21T15:45:23.282Z,5.60
2018-01-21T15:47:54.898Z,5.60
2018-01-21T15:50:23.508Z,5.60
2018-01-21T15:52:56.856Z,5.60
2018-01-21T15:55:28.211Z,5.60
2018-01-21T15:57:57.915Z,5.60
2018-01-21T16:00:26.228Z,5.60
2018-01-21T16:02:59.147Z,5.60
2018-01-21T16:05:30.894Z,5.70
2018-01-21T16:08:03.230Z,5.70
2018-01-21T16:10:33.620Z,5.70
2018-01-21T16:13:02.180Z,5.70
2018-01-21T16:29:45.176Z,5.80
2018-01-21T16:32:14.762Z,5.70
2018-01-21T16:34:43.608Z,5.80
2018-01-21T16:41:15.665Z,5.80
2018-01-21T16:43:45.386Z,5.80
2018-01-21T16:46:15.313Z,5.90
2018-01-21T16:48:47.051Z,5.90
2018-01-21T16:51:17.554Z,5.90
2018-01-21T16:53:51.334Z,5.90
2018-01-21T16:56:23.305Z,5.90
2018-01-21T16:58:52.495Z,5.90
2018-01-21T17:01:20.860Z,5.90
2018-01-21T17:03:50.392Z,5.90
2018-01-21T17:06:21.307Z,6.00
2018-01-21T17:08:50.177Z,6.00
2018-01-21T17:11:18.978Z,6.00
2018-01-21T17:13:49.345Z,6.00
2018-01-21T17:16:17.923Z,6.10
2018-01-21T17:18:48.140Z,6.10
2018-01-21T17:21:18.024Z,6.10
2018-01-21T17:23:46.574Z,6.20
2018-01-21T17:26:15.736Z,6.20
2018-01-21T17:28:45.124Z,6.20
2018-01-21T17:31:15.526Z,6.20
2018-01-21T17:33:45.919Z,6.20
2018-01-21T17:36:15.842Z,6.30
2018-01-21T17:38:44.637Z,6.40
2018-01-21T17:41:21.581Z,6.30
2018-01-21T17:44:03.967Z,6.40
2018-01-21T17:46:44.943Z,6.30
2018-01-21T17:49:14.508Z,6.30
2018-01-21T17:51:45.567Z,6.30
2018-01-21T17:54:26.009Z,6.30
2018-01-21T17:56:55.308Z,6.30
2018-01-21T17:59:27.731Z,6.40
2018-01-21T18:02:00.322Z,6.30
2018-01-21T18:04:33.996Z,6.30
2018-01-21T18:07:07.684Z,6.40
2018-01-21T18:09:37.394Z,6.40
2018-01-21T18:12:09.692Z,6.50
2018-01-21T18:14:40.601Z,6.40
2018-01-21T18:17:09.397Z,6.40
2018-01-21T18:19:37.807Z,6.40
2018-01-21T18:22:09.265Z,6.50
2018-01-21T18:24:42.313Z,6.50
2018-01-21T18:27:12.941Z,6.50
2018-01-21T18:29:41.942Z,6.50
2018-01-21T18:32:11.062Z,6.50
2018-01-21T18:34:46.386Z,6.50
2018-01-21T18:37:14.719Z,6.50
2018-01-21T18:39:43.832Z,6.60
2018-01-21T18:42:13.554Z,6.70
2018-01-21T18:44:42.888Z,6.90
2018-01-21T18:47:13.360Z,7.10
2018-01-21T18:49:41.874Z,7.10
2018-01-21T18:52:11.532Z,7.20
2018-01-21T18:54:41.890Z,7.40
2018-01-21T18:57:13.073Z,7.50
2018-01-21T18:59:43.516Z,7.60
2018-01-21T19:02:13.564Z,7.60
2018-01-21T19:04:42.661Z,7.80
2018-01-21T19:07:13.827Z,7.80
2018-01-21T19:09:47.774Z,7.90
2018-01-21T19:12:17.356Z,7.90
2018-01-21T19:14:47.362Z,7.90
2018-01-21T19:17:16.873Z,7.90
2018-01-21T19:19:47.782Z,8.00
2018-01-21T19:22:16.124Z,8.00
2018-01-21T19:24:46.105Z,8.00
2018-01-21T19:27:16.799Z,8.00
2018-01-21T19:29:46.150Z,8.00
2018-01-21T19:32:15.222Z,8.00
2018-01-21T19:34:44.531Z,8.10
2018-01-21T19:37:12.828Z,8.30
2018-01-21T19:39:58.486Z,8.40
2018-01-21T19:42:32.937Z,8.40
2018-01-21T19:45:02.563Z,8.50
2018-01-21T19:47:31.994Z,8.70
2018-01-21T19:50:00.525Z,9.00
2018-01-21T19:52:30.538Z,9.10
2018-01-21T19:55:03.037Z,9.30
2018-01-21T19:57:39.856Z,9.40
2018-01-21T20:00:10.423Z,9.60
2018-01-21T20:02:39.353Z,9.70
2018-01-21T20:05:10.029Z,9.70
2018-01-21T20:07:39.616Z,9.70
2018-01-21T20:10:09.014Z,9.80
2018-01-21T20:12:54.534Z,9.80
2018-01-21T20:15:22.874Z,9.80
2018-01-21T20:17:51.193Z,9.90
2018-01-21T20:20:21.478Z,10.00
2018-01-21T20:22:49.807Z,10.00
2018-01-21T20:25:18.806Z,10.00
2018-01-21T20:27:47.756Z,10.00
2018-01-21T20:30:17.779Z,10.10
2018-01-21T20:32:46.448Z,10.10
2018-01-21T20:35:18.556Z,10.10
2018-01-21T20:37:48.051Z,10.20
2018-01-21T20:40:18.218Z,10.20
2018-01-21T20:42:47.938Z,10.30
2018-01-21T20:45:16.259Z,10.30
2018-01-21T20:47:47.108Z,10.40
2018-01-21T20:50:15.686Z,10.40
2018-01-21T20:52:47.517Z,10.30
2018-01-21T20:55:16.394Z,10.30
2018-01-21T20:57:46.829Z,10.40
2018-01-21T21:00:16.138Z,10.50
2018-01-21T21:02:45.242Z,10.50
2018-01-21T21:05:13.604Z,10.50
2018-01-21T21:07:42.680Z,10.50
2018-01-21T21:10:10.973Z,10.60
2018-01-21T21:12:41.143Z,10.70
2018-01-21T21:15:09.645Z,10.70
2018-01-21T21:17:40.084Z,10.70
2018-01-21T21:20:08.422Z,10.70
2018-01-21T21:22:40.324Z,10.70
2018-01-21T21:25:10.756Z,10.80
2018-01-21T21:27:39.438Z,10.80
2018-01-21T21:30:09.018Z,10.80
2018-01-21T21:32:37.415Z,10.90
2018-01-21T21:35:06.103Z,10.90
2018-01-21T21:37:40.285Z,10.80
2018-01-21T21:40:08.743Z,10.70
2018-01-21T21:42:37.383Z,10.70
2018-01-21T21:45:06.612Z,10.70
2018-01-21T21:47:38.663Z,10.70
2018-01-21T21:50:08.391Z,10.80
2018-01-21T21:52:40.704Z,10.70
2018-01-21T21:55:09.150Z,10.70
2018-01-21T21:57:37.441Z,10.70
2018-01-21T22:00:09.834Z,10.70
2018-01-21T22:02:39.795Z,10.70
2018-01-21T22:05:08.587Z,10.80
2018-01-21T22:07:40.459Z,10.80
2018-01-21T22:10:10.464Z,10.70
2018-01-21T22:12:40.813Z,10.70
2018-01-21T22:15:11.825Z,10.70
2018-01-21T22:17:40.820Z,10.70
2018-01-21T22:20:10.238Z,10.70
2018-01-21T22:22:39.460Z,10.80
2018-01-21T22:25:12.004Z,10.70
2018-01-21T22:27:44.327Z,10.70
2018-01-21T22:30:14.876Z,10.70
2018-01-21T22:32:44.765Z,10.60
2018-01-21T22:35:14.417Z,10.60
2018-01-21T22:37:43.057Z,10.60
2018-01-21T22:40:13.626Z,10.50
2018-01-21T22:42:44.906Z,10.60
2018-01-21T22:45:13.668Z,10.50
2018-01-21T22:47:42.154Z,10.50
2018-01-21T22:50:12.081Z,10.40
2018-01-21T22:52:52.321Z,10.60
2018-01-21T22:55:20.624Z,10.50
2018-01-21T22:57:49.619Z,10.50
2018-01-21T23:00:18.273Z,10.40
2018-01-21T23:02:47.240Z,10.40
2018-01-21T23:05:18.286Z,10.50
2018-01-21T23:07:49.412Z,10.50
2018-01-21T23:10:18.564Z,10.50
2018-01-21T23:12:52.484Z,10.60
2018-01-21T23:15:24.132Z,10.60
2018-01-21T23:17:53.223Z,10.60
2018-01-21T23:20:36.369Z,10.50
2018-01-21T23:23:06.374Z,10.40
2018-01-21T23:25:36.494Z,10.30
2018-01-21T23:28:05.304Z,10.30
2018-01-21T23:30:33.761Z,10.40
2018-01-21T23:33:02.517Z,10.30
2018-01-21T23:35:32.330Z,10.40
2018-01-21T23:38:03.975Z,10.60
2018-01-21T23:40:32.462Z,10.50
2018-01-21T23:43:00.753Z,10.30
2018-01-21T23:45:30.426Z,10.20
2018-01-21T23:47:58.983Z,10.20
2018-01-21T23:50:28.510Z,10.30
2018-01-21T23:52:56.820Z,10.40
2018-01-21T23:55:26.363Z,10.40
2018-01-21T23:57:55.931Z,10.20
